sensor_id;sensor_type;location;lat;lon;timestamp;pressure;altitude;pressure_sealevel;temperature;humidity
48652;BME280;34442;52.362;-1.302;2023-02-03T00:02:08;101269.81;;;9.68;100.00
48652;BME280;34442;52.362;-1.302;2023-02-03T00:04:33;101278.84;;;9.75;100.00
48652;BME280;34442;52.362;-1.302;2023-02-03T00:06:59;101283.53;;;9.73;100.00
48652;BME280;34442;52.362;-1.302;2023-02-03T00:09:24;101298.81;;;9.73;100.00
48652;BME280;34442;52.362;-1.302;2023-02-03T00:11:49;101299.25;;;9.84;100.00
48652;BME280;34442;52.362;-1.302;2023-02-03T00:14:15;101298.22;;;9.85;100.00
48652;BME280;34442;52.362;-1.302;2023-02-03T00:16:41;101298.56;;;9.82;100.00
48652;BME280;34442;52.362;-1.302;2023-02-03T00:19:06;101306.28;;;9.85;100.00
48652;BME280;34442;52.362;-1.302;2023-02-03T00:21:32;101312.81;;;9.83;100.00
48652;BME280;34442;52.362;-1.302;2023-02-03T00:23:57;101309.69;;;9.79;100.00
48652;BME280;34442;52.362;-1.302;2023-02-03T00:26:22;101316.53;;;9.82;100.00
48652;BME280;34442;52.362;-1.302;2023-02-03T00:28:50;101298.75;;;9.81;100.00
48652;BME280;34442;52.362;-1.302;2023-02-03T00:31:20;101306.53;;;9.76;100.00
48652;BME280;34442;52.362;-1.302;2023-02-03T00:33:47;101313.13;;;9.65;100.00
48652;BME280;34442;52.362;-1.302;2023-02-03T00:36:17;101303.94;;;9.59;100.00
48652;BME280;34442;52.362;-1.302;2023-02-03T00:38:42;101304.78;;;9.60;100.00
48652;BME280;34442;52.362;-1.302;2023-02-03T00:41:08;101300.22;;;9.60;100.00
48652;BME280;34442;52.362;-1.302;2023-02-03T00:43:33;101291.69;;;9.57;100.00
48652;BME280;34442;52.362;-1.302;2023-02-03T00:45:58;101284.47;;;9.57;100.00
48652;BME280;34442;52.362;-1.302;2023-02-03T00:48:24;101284.53;;;9.49;100.00
48652;BME280;34442;52.362;-1.302;2023-02-03T00:50:49;101298.28;;;9.46;100.00
48652;BME280;34442;52.362;-1.302;2023-02-03T00:53:15;101292.75;;;9.48;100.00
48652;BME280;34442;52.362;-1.302;2023-02-03T00:55:42;101301.16;;;9.44;100.00
48652;BME280;34442;52.362;-1.302;2023-02-03T00:58:07;101305.22;;;9.40;100.00
48652;BME280;34442;52.362;-1.302;2023-02-03T01:00:32;101302.88;;;9.37;100.00
48652;BME280;34442;52.362;-1.302;2023-02-03T01:02:58;101296.84;;;9.35;100.00
48652;BME280;34442;52.362;-1.302;2023-02-03T01:05:23;101295.84;;;9.36;100.00
48652;BME280;34442;52.362;-1.302;2023-02-03T01:07:49;101302.56;;;9.32;100.00
48652;BME280;34442;52.362;-1.302;2023-02-03T01:10:14;101284.84;;;9.23;100.00
48652;BME280;34442;52.362;-1.302;2023-02-03T01:12:40;101280.00;;;9.18;100.00
48652;BME280;34442;52.362;-1.302;2023-02-03T01:15:05;101275.28;;;9.20;100.00
48652;BME280;34442;52.362;-1.302;2023-02-03T01:17:31;101270.25;;;9.17;100.00
48652;BME280;34442;52.362;-1.302;2023-02-03T01:19:56;101265.09;;;9.16;100.00
48652;BME280;34442;52.362;-1.302;2023-02-03T01:22:22;101265.28;;;9.14;100.00
48652;BME280;34442;52.362;-1.302;2023-02-03T01:24:47;101277.03;;;9.13;100.00
48652;BME280;34442;52.362;-1.302;2023-02-03T01:27:13;101270.50;;;9.08;100.00
48652;BME280;34442;52.362;-1.302;2023-02-03T01:29:38;101268.50;;;9.10;100.00
48652;BME280;34442;52.362;-1.302;2023-02-03T01:32:03;101276.03;;;9.06;100.00
48652;BME280;34442;52.362;-1.302;2023-02-03T01:34:29;101296.34;;;9.01;100.00
48652;BME280;34442;52.362;-1.302;2023-02-03T01:36:54;101300.88;;;9.00;100.00
48652;BME280;34442;52.362;-1.302;2023-02-03T01:39:20;101297.66;;;9.05;100.00
48652;BME280;34442;52.362;-1.302;2023-02-03T01:41:45;101288.78;;;9.04;100.00
48652;BME280;34442;52.362;-1.302;2023-02-03T01:44:38;101279.75;;;9.05;100.00
48652;BME280;34442;52.362;-1.302;2023-02-03T01:52:19;101272.88;;;9.03;100.00
48652;BME280;34442;52.362;-1.302;2023-02-03T01:54:46;101284.63;;;9.02;100.00
48652;BME280;34442;52.362;-1.302;2023-02-03T01:57:23;101287.13;;;9.03;100.00
48652;BME280;34442;52.362;-1.302;2023-02-03T01:59:51;101287.13;;;9.03;100.00
48652;BME280;34442;52.362;-1.302;2023-02-03T02:02:18;101287.28;;;9.02;100.00
48652;BME280;34442;52.362;-1.302;2023-02-03T02:07:33;101296.28;;;9.09;100.00
48652;BME280;34442;52.362;-1.302;2023-02-03T02:09:59;101298.97;;;9.09;100.00
48652;BME280;34442;52.362;-1.302;2023-02-03T02:12:24;101290.09;;;9.08;100.00
48652;BME280;34442;52.362;-1.302;2023-02-03T02:14:50;101299.16;;;9.07;100.00
48652;BME280;34442;52.362;-1.302;2023-02-03T02:28:15;101308.16;;;9.23;100.00
48652;BME280;34442;52.362;-1.302;2023-02-03T02:33:42;101309.44;;;9.35;100.00
48652;BME280;34442;52.362;-1.302;2023-02-03T02:39:01;101310.09;;;9.37;100.00
48652;BME280;34442;52.362;-1.302;2023-02-03T02:41:38;101321.00;;;9.35;100.00
48652;BME280;34442;52.362;-1.302;2023-02-03T02:44:22;101314.31;;;9.31;100.00
48652;BME280;34442;52.362;-1.302;2023-02-03T02:46:52;101317.16;;;9.30;100.00
48652;BME280;34442;52.362;-1.302;2023-02-03T02:49:24;101314.00;;;9.26;100.00
48652;BME280;34442;52.362;-1.302;2023-02-03T02:51:52;101312.50;;;9.24;100.00
48652;BME280;34442;52.362;-1.302;2023-02-03T02:54:21;101313.34;;;9.24;100.00
48652;BME280;34442;52.362;-1.302;2023-02-03T02:56:51;101323.44;;;9.22;100.00
48652;BME280;34442;52.362;-1.302;2023-02-03T02:59:17;101317.34;;;9.28;100.00
48652;BME280;34442;52.362;-1.302;2023-02-03T03:01:43;101325.22;;;9.30;100.00
48652;BME280;34442;52.362;-1.302;2023-02-03T03:04:11;101322.53;;;9.30;100.00
48652;BME280;34442;52.362;-1.302;2023-02-03T03:06:41;101325.59;;;9.27;100.00
48652;BME280;34442;52.362;-1.302;2023-02-03T03:09:11;101327.06;;;9.29;100.00
48652;BME280;34442;52.362;-1.302;2023-02-03T03:11:44;101337.97;;;9.28;100.00
48652;BME280;34442;52.362;-1.302;2023-02-03T03:14:14;101319.84;;;9.30;100.00
48652;BME280;34442;52.362;-1.302;2023-02-03T03:16:47;101325.22;;;9.30;100.00
48652;BME280;34442;52.362;-1.302;2023-02-03T03:19:19;101324.38;;;9.29;100.00
48652;BME280;34442;52.362;-1.302;2023-02-03T03:21:49;101320.03;;;9.28;100.00
48652;BME280;34442;52.362;-1.302;2023-02-03T03:24:20;101310.16;;;9.20;100.00
48652;BME280;34442;52.362;-1.302;2023-02-03T03:27:09;101311.72;;;9.15;100.00
48652;BME280;34442;52.362;-1.302;2023-02-03T03:29:43;101311.75;;;9.07;100.00
48652;BME280;34442;52.362;-1.302;2023-02-03T03:32:12;101309.59;;;9.02;100.00
48652;BME280;34442;52.362;-1.302;2023-02-03T03:34:38;101304.88;;;9.04;100.00
48652;BME280;34442;52.362;-1.302;2023-02-03T03:37:57;101314.22;;;9.16;100.00
48652;BME280;34442;52.362;-1.302;2023-02-03T03:40:19;101316.88;;;9.16;100.00
48652;BME280;34442;52.362;-1.302;2023-02-03T03:42:57;101323.44;;;9.22;100.00
48652;BME280;34442;52.362;-1.302;2023-02-03T03:45:38;101322.22;;;9.25;100.00
48652;BME280;34442;52.362;-1.302;2023-02-03T03:48:18;101327.72;;;9.31;100.00
48652;BME280;34442;52.362;-1.302;2023-02-03T03:50:49;101324.56;;;9.28;100.00
48652;BME280;34442;52.362;-1.302;2023-02-03T03:53:17;101324.22;;;9.31;100.00
48652;BME280;34442;52.362;-1.302;2023-02-03T03:55:47;101327.41;;;9.34;100.00
48652;BME280;34442;52.362;-1.302;2023-02-03T03:58:18;101327.41;;;9.34;100.00
48652;BME280;34442;52.362;-1.302;2023-02-03T04:00:46;101336.44;;;9.33;100.00
48652;BME280;34442;52.362;-1.302;2023-02-03T04:03:16;101338.59;;;9.38;100.00
48652;BME280;34442;52.362;-1.302;2023-02-03T04:05:43;101323.69;;;9.35;100.00
48652;BME280;34442;52.362;-1.302;2023-02-03T04:08:08;101344.31;;;9.35;100.00
48652;BME280;34442;52.362;-1.302;2023-02-03T04:10:36;101353.69;;;9.39;100.00
48652;BME280;34442;52.362;-1.302;2023-02-03T04:13:03;101360.06;;;9.38;100.00
48652;BME280;34442;52.362;-1.302;2023-02-03T04:15:29;101369.28;;;9.43;100.00
48652;BME280;34442;52.362;-1.302;2023-02-03T04:17:55;101365.09;;;9.41;100.00
48652;BME280;34442;52.362;-1.302;2023-02-03T04:20:22;101372.47;;;9.39;100.00
48652;BME280;34442;52.362;-1.302;2023-02-03T04:22:48;101367.47;;;9.36;100.00
48652;BME280;34442;52.362;-1.302;2023-02-03T04:25:13;101381.72;;;9.36;100.00
48652;BME280;34442;52.362;-1.302;2023-02-03T04:27:39;101377.47;;;9.42;100.00
48652;BME280;34442;52.362;-1.302;2023-02-03T04:30:05;101376.50;;;9.43;100.00
48652;BME280;34442;52.362;-1.302;2023-02-03T04:32:30;101366.28;;;9.38;100.00
48652;BME280;34442;52.362;-1.302;2023-02-03T04:34:57;101379.22;;;9.35;100.00
48652;BME280;34442;52.362;-1.302;2023-02-03T04:37:23;101386.78;;;9.31;100.00
48652;BME280;34442;52.362;-1.302;2023-02-03T04:39:51;101384.59;;;9.27;100.00
48652;BME280;34442;52.362;-1.302;2023-02-03T04:42:17;101389.16;;;9.26;100.00
48652;BME280;34442;52.362;-1.302;2023-02-03T04:44:42;101389.16;;;9.26;100.00
48652;BME280;34442;52.362;-1.302;2023-02-03T04:47:08;101393.19;;;9.22;100.00
48652;BME280;34442;52.362;-1.302;2023-02-03T04:49:33;101395.53;;;9.17;100.00
48652;BME280;34442;52.362;-1.302;2023-02-03T04:51:59;101400.22;;;9.15;100.00
48652;BME280;34442;52.362;-1.302;2023-02-03T04:54:24;101400.56;;;9.12;100.00
48652;BME280;34442;52.362;-1.302;2023-02-03T04:56:50;101403.09;;;9.13;100.00
48652;BME280;34442;52.362;-1.302;2023-02-03T04:59:15;101405.94;;;9.12;100.00
48652;BME280;34442;52.362;-1.302;2023-02-03T05:01:40;101399.94;;;9.10;100.00
48652;BME280;34442;52.362;-1.302;2023-02-03T05:04:06;101400.44;;;9.05;100.00
48652;BME280;34442;52.362;-1.302;2023-02-03T05:06:32;101388.56;;;8.91;100.00
48652;BME280;34442;52.362;-1.302;2023-02-03T05:08:57;101387.06;;;8.97;100.00
48652;BME280;34442;52.362;-1.302;2023-02-03T05:11:23;101370.59;;;8.92;100.00
48652;BME280;34442;52.362;-1.302;2023-02-03T05:13:49;101381.16;;;9.02;100.00
48652;BME280;34442;52.362;-1.302;2023-02-03T05:16:14;101373.44;;;9.07;100.00
48652;BME280;34442;52.362;-1.302;2023-02-03T05:18:40;101388.00;;;9.12;100.00
48652;BME280;34442;52.362;-1.302;2023-02-03T05:21:06;101386.16;;;9.05;100.00
48652;BME280;34442;52.362;-1.302;2023-02-03T05:23:31;101380.97;;;9.03;100.00
48652;BME280;34442;52.362;-1.302;2023-02-03T05:25:57;101386.16;;;9.05;100.00
48652;BME280;34442;52.362;-1.302;2023-02-03T05:28:22;101394.91;;;9.07;100.00
48652;BME280;34442;52.362;-1.302;2023-02-03T05:30:48;101397.75;;;9.05;100.00
48652;BME280;34442;52.362;-1.302;2023-02-03T05:33:13;101399.56;;;9.05;100.00
48652;BME280;34442;52.362;-1.302;2023-02-03T05:35:38;101406.78;;;9.04;100.00
48652;BME280;34442;52.362;-1.302;2023-02-03T05:38:04;101399.09;;;9.01;100.00
48652;BME280;34442;52.362;-1.302;2023-02-03T05:40:29;101406.13;;;9.02;100.00
48652;BME280;34442;52.362;-1.302;2023-02-03T05:43:13;101409.66;;;8.94;100.00
48652;BME280;34442;52.362;-1.302;2023-02-03T05:45:39;101414.53;;;8.99;100.00
48652;BME280;34442;52.362;-1.302;2023-02-03T05:48:04;101410.47;;;9.11;100.00
48652;BME280;34442;52.362;-1.302;2023-02-03T05:50:31;101412.84;;;9.06;100.00
48652;BME280;34442;52.362;-1.302;2023-02-03T05:53:03;101430.56;;;9.15;100.00
48652;BME280;34442;52.362;-1.302;2023-02-03T05:55:32;101432.09;;;9.18;100.00
48652;BME280;34442;52.362;-1.302;2023-02-03T05:57:58;101425.41;;;9.14;100.00
48652;BME280;34442;52.362;-1.302;2023-02-03T06:00:24;101427.25;;;9.13;100.00
48652;BME280;34442;52.362;-1.302;2023-02-03T06:02:54;101431.59;;;9.14;100.00
48652;BME280;34442;52.362;-1.302;2023-02-03T06:05:21;101430.06;;;9.12;100.00
48652;BME280;34442;52.362;-1.302;2023-02-03T06:07:47;101441.13;;;9.09;100.00
48652;BME280;34442;52.362;-1.302;2023-02-03T06:10:13;101442.66;;;9.11;100.00
48652;BME280;34442;52.362;-1.302;2023-02-03T06:12:38;101450.53;;;9.13;100.00
48652;BME280;34442;52.362;-1.302;2023-02-03T06:15:05;101452.22;;;9.14;100.00
48652;BME280;34442;52.362;-1.302;2023-02-03T06:17:30;101462.13;;;9.13;100.00
48652;BME280;34442;52.362;-1.302;2023-02-03T06:19:56;101458.25;;;9.16;100.00
48652;BME280;34442;52.362;-1.302;2023-02-03T06:22:21;101473.31;;;9.17;100.00
48652;BME280;34442;52.362;-1.302;2023-02-03T06:24:47;101466.59;;;9.21;100.00
48652;BME280;34442;52.362;-1.302;2023-02-03T06:27:13;101471.81;;;9.23;100.00
48652;BME280;34442;52.362;-1.302;2023-02-03T06:29:40;101470.63;;;9.25;100.00
48652;BME280;34442;52.362;-1.302;2023-02-03T06:32:06;101463.59;;;9.24;100.00
48652;BME280;34442;52.362;-1.302;2023-02-03T06:34:31;101463.41;;;9.26;100.00
48652;BME280;34442;52.362;-1.302;2023-02-03T06:36:57;101464.09;;;9.28;100.00
48652;BME280;34442;52.362;-1.302;2023-02-03T06:39:22;101467.59;;;9.28;100.00
48652;BME280;34442;52.362;-1.302;2023-02-03T06:41:48;101472.31;;;9.26;100.00
48652;BME280;34442;52.362;-1.302;2023-02-03T06:44:15;101461.09;;;9.23;100.00
48652;BME280;34442;52.362;-1.302;2023-02-03T06:46:40;101465.78;;;9.20;100.00
48652;BME280;34442;52.362;-1.302;2023-02-03T06:49:06;101473.66;;;9.22;100.00
48652;BME280;34442;52.362;-1.302;2023-02-03T06:51:31;101472.31;;;9.26;100.00
48652;BME280;34442;52.362;-1.302;2023-02-03T06:53:57;101465.75;;;9.29;100.00
48652;BME280;34442;52.362;-1.302;2023-02-03T06:56:23;101462.25;;;9.28;100.00
48652;BME280;34442;52.362;-1.302;2023-02-03T06:58:48;101461.09;;;9.23;100.00
48652;BME280;34442;52.362;-1.302;2023-02-03T07:01:13;101448.50;;;9.23;100.00
48652;BME280;34442;52.362;-1.302;2023-02-03T07:03:39;101446.34;;;9.18;100.00
48652;BME280;34442;52.362;-1.302;2023-02-03T07:06:05;101454.41;;;9.10;100.00
48652;BME280;34442;52.362;-1.302;2023-02-03T07:08:30;101460.09;;;9.15;100.00
48652;BME280;34442;52.362;-1.302;2023-02-03T07:10:55;101461.94;;;9.15;100.00
48652;BME280;34442;52.362;-1.302;2023-02-03T07:13:21;101471.66;;;9.16;100.00
48652;BME280;34442;52.362;-1.302;2023-02-03T07:15:46;101467.97;;;9.09;100.00
48652;BME280;34442;52.362;-1.302;2023-02-03T07:18:12;101473.00;;;9.12;100.00
48652;BME280;34442;52.362;-1.302;2023-02-03T07:20:37;101460.94;;;9.08;100.00
48652;BME280;34442;52.362;-1.302;2023-02-03T07:23:02;101473.69;;;9.06;100.00
48652;BME280;34442;52.362;-1.302;2023-02-03T07:25:31;101468.34;;;9.06;100.00
48652;BME280;34442;52.362;-1.302;2023-02-03T07:27:57;101465.28;;;9.01;100.00
48652;BME280;34442;52.362;-1.302;2023-02-03T07:30:22;101467.31;;;8.99;100.00
48652;BME280;34442;52.362;-1.302;2023-02-03T07:32:49;101476.03;;;9.01;100.00
48652;BME280;34442;52.362;-1.302;2023-02-03T07:35:15;101475.03;;;9.02;100.00
48652;BME280;34442;52.362;-1.302;2023-02-03T07:37:41;101474.19;;;9.01;100.00
48652;BME280;34442;52.362;-1.302;2023-02-03T07:40:08;101472.34;;;9.02;100.00
48652;BME280;34442;52.362;-1.302;2023-02-03T07:42:34;101478.38;;;8.95;100.00
48652;BME280;34442;52.362;-1.302;2023-02-03T07:44:59;101474.88;;;8.95;100.00
48652;BME280;34442;52.362;-1.302;2023-02-03T07:47:25;101474.03;;;8.94;100.00
48652;BME280;34442;52.362;-1.302;2023-02-03T07:49:50;101474.34;;;9.00;100.00
48652;BME280;34442;52.362;-1.302;2023-02-03T07:52:15;101474.03;;;8.94;100.00
48652;BME280;34442;52.362;-1.302;2023-02-03T07:54:41;101477.88;;;9.00;100.00
48652;BME280;34442;52.362;-1.302;2023-02-03T07:57:06;101476.91;;;8.93;100.00
48652;BME280;34442;52.362;-1.302;2023-02-03T07:59:31;101482.72;;;8.97;100.00
48652;BME280;34442;52.362;-1.302;2023-02-03T08:01:57;101483.09;;;8.93;100.00
48652;BME280;34442;52.362;-1.302;2023-02-03T08:04:22;101489.28;;;8.94;100.00
48652;BME280;34442;52.362;-1.302;2023-02-03T08:06:48;101492.97;;;8.93;100.00
48652;BME280;34442;52.362;-1.302;2023-02-03T08:09:14;101492.13;;;9.01;100.00
48652;BME280;34442;52.362;-1.302;2023-02-03T08:11:39;101489.94;;;8.96;100.00
48652;BME280;34442;52.362;-1.302;2023-02-03T08:14:05;101488.47;;;8.93;100.00
48652;BME280;34442;52.362;-1.302;2023-02-03T08:16:30;101489.09;;;8.95;100.00
48652;BME280;34442;52.362;-1.302;2023-02-03T08:18:56;101486.94;;;8.91;100.00
48652;BME280;34442;52.362;-1.302;2023-02-03T08:21:22;101482.72;;;8.97;100.00
48652;BME280;34442;52.362;-1.302;2023-02-03T08:23:47;101494.31;;;8.97;100.00
48652;BME280;34442;52.362;-1.302;2023-02-03T08:26:12;101500.66;;;8.96;100.00
48652;BME280;34442;52.362;-1.302;2023-02-03T08:28:38;101500.16;;;9.01;100.00
48652;BME280;34442;52.362;-1.302;2023-02-03T08:31:10;101505.19;;;9.04;100.00
48652;BME280;34442;52.362;-1.302;2023-02-03T08:33:36;101520.28;;;9.05;100.00
48652;BME280;34442;52.362;-1.302;2023-02-03T08:36:03;101516.63;;;9.06;100.00
48652;BME280;34442;52.362;-1.302;2023-02-03T08:38:30;101522.47;;;9.09;100.00
48652;BME280;34442;52.362;-1.302;2023-02-03T08:40:55;101520.28;;;9.05;100.00
48652;BME280;34442;52.362;-1.302;2023-02-03T08:43:21;101522.31;;;9.03;100.00
48652;BME280;34442;52.362;-1.302;2023-02-03T08:45:46;101524.16;;;9.02;100.00
48652;BME280;34442;52.362;-1.302;2023-02-03T08:48:12;101533.34;;;9.08;100.00
48652;BME280;34442;52.362;-1.302;2023-02-03T08:50:40;101529.19;;;9.05;100.00
48652;BME280;34442;52.362;-1.302;2023-02-03T08:53:05;101532.19;;;9.10;100.00
48652;BME280;34442;52.362;-1.302;2023-02-03T08:55:31;101525.31;;;9.08;100.00
48652;BME280;34442;52.362;-1.302;2023-02-03T08:57:56;101523.31;;;9.10;100.00
48652;BME280;34442;52.362;-1.302;2023-02-03T09:00:22;101537.38;;;9.12;100.00
48652;BME280;34442;52.362;-1.302;2023-02-03T09:02:47;101531.69;;;9.15;100.00
48652;BME280;34442;52.362;-1.302;2023-02-03T09:05:13;101533.22;;;9.09;100.00
48652;BME280;34442;52.362;-1.302;2023-02-03T09:07:40;101545.75;;;9.17;100.00
48652;BME280;34442;52.362;-1.302;2023-02-03T09:10:05;101553.47;;;9.20;100.00
48652;BME280;34442;52.362;-1.302;2023-02-03T09:12:31;101558.66;;;9.22;100.00
48652;BME280;34442;52.362;-1.302;2023-02-03T09:14:56;101567.22;;;9.25;100.00
48652;BME280;34442;52.362;-1.302;2023-02-03T09:17:21;101564.72;;;9.24;100.00
48652;BME280;34442;52.362;-1.302;2023-02-03T09:19:47;101569.25;;;9.23;100.00
48652;BME280;34442;52.362;-1.302;2023-02-03T09:22:12;101578.31;;;9.30;100.00
48652;BME280;34442;52.362;-1.302;2023-02-03T09:24:37;101577.28;;;9.31;100.00
48652;BME280;34442;52.362;-1.302;2023-02-03T09:27:03;101584.81;;;9.36;100.00
48652;BME280;34442;52.362;-1.302;2023-02-03T09:29:28;101584.81;;;9.36;100.00
48652;BME280;34442;52.362;-1.302;2023-02-03T09:31:54;101605.59;;;9.42;100.00
48652;BME280;34442;52.362;-1.302;2023-02-03T09:34:20;101603.44;;;9.45;100.00
48652;BME280;34442;52.362;-1.302;2023-02-03T09:36:46;101625.91;;;9.44;100.00
48652;BME280;34442;52.362;-1.302;2023-02-03T09:39:11;101628.59;;;9.53;100.00
48652;BME280;34442;52.362;-1.302;2023-02-03T09:42:10;101621.56;;;9.60;100.00
48652;BME280;34442;52.362;-1.302;2023-02-03T09:44:51;101631.78;;;9.64;100.00
48652;BME280;34442;52.362;-1.302;2023-02-03T09:47:26;101622.56;;;9.67;100.00
48652;BME280;34442;52.362;-1.302;2023-02-03T09:49:56;101623.41;;;9.67;100.00
48652;BME280;34442;52.362;-1.302;2023-02-03T09:52:25;101638.31;;;9.70;100.00
48652;BME280;34442;52.362;-1.302;2023-02-03T09:55:10;101635.09;;;9.75;100.00
48652;BME280;34442;52.362;-1.302;2023-02-03T10:00:34;101654.72;;;9.83;100.00
48652;BME280;34442;52.362;-1.302;2023-02-03T10:08:35;101676.22;;;9.91;100.00
48652;BME280;34442;52.362;-1.302;2023-02-03T10:11:32;101659.09;;;9.92;100.00
48652;BME280;34442;52.362;-1.302;2023-02-03T10:19:20;101673.66;;;10.06;100.00
48652;BME280;34442;52.362;-1.302;2023-02-03T10:21:52;101678.22;;;9.98;100.00
48652;BME280;34442;52.362;-1.302;2023-02-03T10:24:38;101677.69;;;10.10;100.00
48652;BME280;34442;52.362;-1.302;2023-02-03T10:27:07;101678.53;;;10.11;100.00
48652;BME280;34442;52.362;-1.302;2023-02-03T10:29:41;101680.53;;;10.17;100.00
48652;BME280;34442;52.362;-1.302;2023-02-03T10:32:11;101680.19;;;10.20;100.00
48652;BME280;34442;52.362;-1.302;2023-02-03T10:34:37;101681.38;;;10.17;100.00
48652;BME280;34442;52.362;-1.302;2023-02-03T10:39:53;101697.16;;;10.21;100.00
48652;BME280;34442;52.362;-1.302;2023-02-03T10:42:20;101693.81;;;10.27;100.00
48652;BME280;34442;52.362;-1.302;2023-02-03T10:44:51;101708.09;;;10.27;100.00
48652;BME280;34442;52.362;-1.302;2023-02-03T10:50:03;101713.13;;;10.30;100.00
48652;BME280;34442;52.362;-1.302;2023-02-03T10:52:31;101714.47;;;10.34;100.00
48652;BME280;34442;52.362;-1.302;2023-02-03T10:55:06;101706.56;;;10.33;100.00
48652;BME280;34442;52.362;-1.302;2023-02-03T10:57:34;101720.47;;;10.36;100.00
48652;BME280;34442;52.362;-1.302;2023-02-03T11:00:30;101726.03;;;10.35;100.00
48652;BME280;34442;52.362;-1.302;2023-02-03T11:03:16;101734.78;;;10.45;100.00
48652;BME280;34442;52.362;-1.302;2023-02-03T11:05:45;101733.25;;;10.42;100.00
48652;BME280;34442;52.362;-1.302;2023-02-03T11:08:15;101737.59;;;10.52;100.00
48652;BME280;34442;52.362;-1.302;2023-02-03T11:10:40;101739.75;;;10.56;100.00
48652;BME280;34442;52.362;-1.302;2023-02-03T11:15:35;101740.94;;;10.62;100.00
48652;BME280;34442;52.362;-1.302;2023-02-03T11:18:00;101730.63;;;10.65;100.00
48652;BME280;34442;52.362;-1.302;2023-02-03T11:20:27;101730.19;;;10.62;100.00
48652;BME280;34442;52.362;-1.302;2023-02-03T11:22:53;101735.53;;;10.70;100.00
48652;BME280;34442;52.362;-1.302;2023-02-03T11:25:31;101744.94;;;10.74;100.00
48652;BME280;34442;52.362;-1.302;2023-02-03T11:28:04;101742.19;;;10.82;100.00
48652;BME280;34442;52.362;-1.302;2023-02-03T11:30:31;101744.72;;;10.84;100.00
48652;BME280;34442;52.362;-1.302;2023-02-03T11:33:01;101748.19;;;10.92;100.00
48652;BME280;34442;52.362;-1.302;2023-02-03T11:35:29;101749.72;;;10.95;100.00
48652;BME280;34442;52.362;-1.302;2023-02-03T11:38:00;101743.81;;;11.00;100.00
48652;BME280;34442;52.362;-1.302;2023-02-03T11:40:30;101738.75;;;10.97;100.00
48652;BME280;34442;52.362;-1.302;2023-02-03T11:43:30;101746.16;;;11.03;100.00
48652;BME280;34442;52.362;-1.302;2023-02-03T11:46:00;101735.38;;;11.03;100.00
48652;BME280;34442;52.362;-1.302;2023-02-03T11:48:30;101738.50;;;10.83;100.00
48652;BME280;34442;52.362;-1.302;2023-02-03T12:07:18;101743.00;;;11.22;100.00
48652;BME280;34442;52.362;-1.302;2023-02-03T12:12:47;101747.50;;;11.30;100.00
48652;BME280;34442;52.362;-1.302;2023-02-03T12:25:59;101751.38;;;11.27;100.00
48652;BME280;34442;52.362;-1.302;2023-02-03T12:31:32;101752.69;;;11.31;100.00
48652;BME280;34442;52.362;-1.302;2023-02-03T12:34:14;101770.41;;;11.26;100.00
48652;BME280;34442;52.362;-1.302;2023-02-03T12:39:39;101775.78;;;11.26;100.00
48652;BME280;34442;52.362;-1.302;2023-02-03T12:44:58;101775.19;;;11.15;100.00
48652;BME280;34442;52.362;-1.302;2023-02-03T12:47:35;101769.13;;;11.13;100.00
48652;BME280;34442;52.362;-1.302;2023-02-03T12:52:39;101781.59;;;11.06;100.00
48652;BME280;34442;52.362;-1.302;2023-02-03T12:57:57;101775.88;;;11.09;100.00
48652;BME280;34442;52.362;-1.302;2023-02-03T13:11:55;101779.22;;;11.11;100.00
48652;BME280;34442;52.362;-1.302;2023-02-03T13:14:35;101767.94;;;11.16;100.00
48652;BME280;34442;52.362;-1.302;2023-02-03T13:17:24;101764.56;;;11.14;100.00
48652;BME280;34442;52.362;-1.302;2023-02-03T13:19:57;101762.56;;;11.16;100.00
48652;BME280;34442;52.362;-1.302;2023-02-03T13:22:24;101763.88;;;11.20;100.00
48652;BME280;34442;52.362;-1.302;2023-02-03T13:25:41;101765.34;;;11.23;100.00
48652;BME280;34442;52.362;-1.302;2023-02-03T13:42:11;101757.03;;;11.40;100.00
48652;BME280;34442;52.362;-1.302;2023-02-03T13:44:43;101746.06;;;11.42;100.00
48652;BME280;34442;52.362;-1.302;2023-02-03T13:47:21;101749.25;;;11.46;100.00
48652;BME280;34442;52.362;-1.302;2023-02-03T13:49:53;101756.31;;;11.47;100.00
48652;BME280;34442;52.362;-1.302;2023-02-03T13:52:33;101751.75;;;11.47;100.00
48652;BME280;34442;52.362;-1.302;2023-02-03T13:55:00;101760.31;;;11.51;100.00
48652;BME280;34442;52.362;-1.302;2023-02-03T13:57:36;101761.16;;;11.51;100.00
48652;BME280;34442;52.362;-1.302;2023-02-03T14:00:56;101772.75;;;11.52;100.00
48652;BME280;34442;52.362;-1.302;2023-02-03T14:02:54;101769.22;;;11.51;100.00
48652;BME280;34442;52.362;-1.302;2023-02-03T14:05:41;101779.50;;;11.48;100.00
48652;BME280;34442;52.362;-1.302;2023-02-03T14:14:39;101770.94;;;11.21;100.00
48652;BME280;34442;52.362;-1.302;2023-02-03T14:16:49;101760.34;;;11.20;100.00
48652;BME280;34442;52.362;-1.302;2023-02-03T14:22:02;101766.44;;;11.13;100.00
48652;BME280;34442;52.362;-1.302;2023-02-03T14:24:35;101764.72;;;11.21;100.00
48652;BME280;34442;52.362;-1.302;2023-02-03T14:27:08;101777.38;;;11.12;100.00
48652;BME280;34442;52.362;-1.302;2023-02-03T14:29:40;101784.09;;;11.16;100.00
48652;BME280;34442;52.362;-1.302;2023-02-03T14:32:11;101779.34;;;11.18;100.00
48652;BME280;34442;52.362;-1.302;2023-02-03T14:34:42;101769.91;;;11.22;100.00
48652;BME280;34442;52.362;-1.302;2023-02-03T14:40:00;101766.88;;;11.25;100.00
48652;BME280;34442;52.362;-1.302;2023-02-03T14:45:24;101762.81;;;11.29;100.00
48652;BME280;34442;52.362;-1.302;2023-02-03T14:50:36;101763.00;;;11.28;100.00
48652;BME280;34442;52.362;-1.302;2023-02-03T14:56:19;101767.19;;;11.30;100.00
48652;BME280;34442;52.362;-1.302;2023-02-03T14:58:50;101770.53;;;11.32;100.00
48652;BME280;34442;52.362;-1.302;2023-02-03T15:06:39;101779.41;;;11.10;100.00
48652;BME280;34442;52.362;-1.302;2023-02-03T15:09:25;101782.84;;;11.27;100.00